sensor_id;sensor_type;location;lat;lon;timestamp;P1;durP1;ratioP1;P2;durP2;ratioP2
20283;SDS011;10301;50.832;4.080;2023-07-16T00:01:03;11.02;;;2.40;;
20283;SDS011;10301;50.832;4.080;2023-07-16T00:03:29;7.97;;;2.10;;
20283;SDS011;10301;50.832;4.080;2023-07-16T00:05:54;8.68;;;2.40;;
20283;SDS011;10301;50.832;4.080;2023-07-16T00:08:20;6.97;;;2.22;;
20283;SDS011;10301;50.832;4.080;2023-07-16T00:10:46;10.25;;;2.63;;
20283;SDS011;10301;50.832;4.080;2023-07-16T00:13:12;10.77;;;2.60;;
20283;SDS011;10301;50.832;4.080;2023-07-16T00:15:37;9.73;;;2.60;;
20283;SDS011;10301;50.832;4.080;2023-07-16T00:18:03;8.15;;;2.38;;
20283;SDS011;10301;50.832;4.080;2023-07-16T00:20:31;10.93;;;2.70;;
20283;SDS011;10301;50.832;4.080;2023-07-16T00:22:56;9.65;;;2.85;;
20283;SDS011;10301;50.832;4.080;2023-07-16T00:25:22;11.45;;;2.45;;
20283;SDS011;10301;50.832;4.080;2023-07-16T00:27:48;7.82;;;2.50;;
20283;SDS011;10301;50.832;4.080;2023-07-16T00:30:14;9.52;;;2.47;;
20283;SDS011;10301;50.832;4.080;2023-07-16T00:32:39;8.48;;;2.60;;
20283;SDS011;10301;50.832;4.080;2023-07-16T00:35:05;11.20;;;2.45;;
20283;SDS011;10301;50.832;4.080;2023-07-16T00:37:31;6.85;;;2.17;;
20283;SDS011;10301;50.832;4.080;2023-07-16T00:39:57;9.50;;;2.53;;
20283;SDS011;10301;50.832;4.080;2023-07-16T00:42:23;9.65;;;2.67;;
20283;SDS011;10301;50.832;4.080;2023-07-16T00:44:49;9.27;;;1.92;;
20283;SDS011;10301;50.832;4.080;2023-07-16T00:47:14;6.15;;;1.77;;
20283;SDS011;10301;50.832;4.080;2023-07-16T00:49:40;12.77;;;2.80;;
20283;SDS011;10301;50.832;4.080;2023-07-16T00:52:07;9.77;;;2.33;;
20283;SDS011;10301;50.832;4.080;2023-07-16T00:54:36;11.00;;;2.50;;
20283;SDS011;10301;50.832;4.080;2023-07-16T00:57:02;14.48;;;3.72;;
20283;SDS011;10301;50.832;4.080;2023-07-16T00:59:29;8.60;;;2.60;;
20283;SDS011;10301;50.832;4.080;2023-07-16T01:01:54;9.90;;;2.40;;
20283;SDS011;10301;50.832;4.080;2023-07-16T01:04:20;9.60;;;2.28;;
20283;SDS011;10301;50.832;4.080;2023-07-16T01:06:50;9.55;;;2.50;;
20283;SDS011;10301;50.832;4.080;2023-07-16T01:09:19;8.50;;;2.17;;
20283;SDS011;10301;50.832;4.080;2023-07-16T01:11:46;10.23;;;3.08;;
20283;SDS011;10301;50.832;4.080;2023-07-16T01:14:14;12.55;;;2.50;;
20283;SDS011;10301;50.832;4.080;2023-07-16T01:16:42;8.30;;;2.95;;
20283;SDS011;10301;50.832;4.080;2023-07-16T01:19:09;8.65;;;3.13;;
20283;SDS011;10301;50.832;4.080;2023-07-16T01:21:37;8.77;;;3.03;;
20283;SDS011;10301;50.832;4.080;2023-07-16T01:24:25;8.57;;;2.47;;
20283;SDS011;10301;50.832;4.080;2023-07-16T01:29:54;10.80;;;3.28;;
20283;SDS011;10301;50.832;4.080;2023-07-16T01:32:29;9.30;;;3.10;;
20283;SDS011;10301;50.832;4.080;2023-07-16T01:34:55;8.23;;;3.13;;
20283;SDS011;10301;50.832;4.080;2023-07-16T01:37:22;10.00;;;3.38;;
20283;SDS011;10301;50.832;4.080;2023-07-16T01:39:48;14.32;;;3.60;;
20283;SDS011;10301;50.832;4.080;2023-07-16T01:42:14;10.05;;;4.13;;
20283;SDS011;10301;50.832;4.080;2023-07-16T01:44:40;10.70;;;3.70;;
20283;SDS011;10301;50.832;4.080;2023-07-16T01:47:13;9.43;;;3.63;;
20283;SDS011;10301;50.832;4.080;2023-07-16T01:49:55;7.88;;;3.72;;
20283;SDS011;10301;50.832;4.080;2023-07-16T01:52:21;13.85;;;3.92;;
20283;SDS011;10301;50.832;4.080;2023-07-16T01:54:47;8.55;;;3.38;;
20283;SDS011;10301;50.832;4.080;2023-07-16T01:57:13;9.00;;;3.28;;
20283;SDS011;10301;50.832;4.080;2023-07-16T01:59:38;10.73;;;3.63;;
20283;SDS011;10301;50.832;4.080;2023-07-16T02:02:04;5.82;;;3.05;;
20283;SDS011;10301;50.832;4.080;2023-07-16T02:04:30;6.78;;;2.90;;
20283;SDS011;10301;50.832;4.080;2023-07-16T02:06:56;8.23;;;3.33;;
20283;SDS011;10301;50.832;4.080;2023-07-16T02:09:21;9.20;;;3.47;;
20283;SDS011;10301;50.832;4.080;2023-07-16T02:11:47;7.35;;;2.92;;
20283;SDS011;10301;50.832;4.080;2023-07-16T02:14:13;9.32;;;3.55;;
20283;SDS011;10301;50.832;4.080;2023-07-16T02:16:40;8.98;;;3.20;;
20283;SDS011;10301;50.832;4.080;2023-07-16T02:19:06;9.68;;;3.58;;
20283;SDS011;10301;50.832;4.080;2023-07-16T02:21:32;7.72;;;3.40;;
20283;SDS011;10301;50.832;4.080;2023-07-16T02:23:57;8.18;;;3.10;;
20283;SDS011;10301;50.832;4.080;2023-07-16T02:26:23;12.00;;;3.65;;
20283;SDS011;10301;50.832;4.080;2023-07-16T02:28:49;10.18;;;3.30;;
20283;SDS011;10301;50.832;4.080;2023-07-16T02:31:14;10.20;;;3.80;;
20283;SDS011;10301;50.832;4.080;2023-07-16T02:33:40;8.63;;;3.83;;
20283;SDS011;10301;50.832;4.080;2023-07-16T02:36:06;9.65;;;3.75;;
20283;SDS011;10301;50.832;4.080;2023-07-16T02:38:31;9.00;;;3.80;;
20283;SDS011;10301;50.832;4.080;2023-07-16T02:40:57;12.45;;;4.57;;
20283;SDS011;10301;50.832;4.080;2023-07-16T02:43:23;11.63;;;4.38;;
20283;SDS011;10301;50.832;4.080;2023-07-16T02:45:48;11.15;;;4.60;;
20283;SDS011;10301;50.832;4.080;2023-07-16T02:48:14;14.10;;;4.75;;
20283;SDS011;10301;50.832;4.080;2023-07-16T02:50:40;10.00;;;4.35;;
20283;SDS011;10301;50.832;4.080;2023-07-16T02:53:06;10.15;;;4.70;;
20283;SDS011;10301;50.832;4.080;2023-07-16T02:55:32;11.65;;;4.72;;
20283;SDS011;10301;50.832;4.080;2023-07-16T02:57:59;10.20;;;4.80;;
20283;SDS011;10301;50.832;4.080;2023-07-16T03:00:29;9.80;;;4.55;;
20283;SDS011;10301;50.832;4.080;2023-07-16T03:02:56;11.38;;;4.70;;
20283;SDS011;10301;50.832;4.080;2023-07-16T03:05:23;10.30;;;4.13;;
20283;SDS011;10301;50.832;4.080;2023-07-16T03:07:49;9.77;;;4.95;;
20283;SDS011;10301;50.832;4.080;2023-07-16T03:10:14;10.93;;;4.60;;
20283;SDS011;10301;50.832;4.080;2023-07-16T03:12:40;9.60;;;4.85;;
20283;SDS011;10301;50.832;4.080;2023-07-16T03:15:05;9.20;;;4.78;;
20283;SDS011;10301;50.832;4.080;2023-07-16T03:17:32;12.18;;;5.15;;
20283;SDS011;10301;50.832;4.080;2023-07-16T03:19:57;9.75;;;5.00;;
20283;SDS011;10301;50.832;4.080;2023-07-16T03:22:23;10.98;;;4.57;;
20283;SDS011;10301;50.832;4.080;2023-07-16T03:24:48;10.93;;;4.88;;
20283;SDS011;10301;50.832;4.080;2023-07-16T03:27:14;12.65;;;5.10;;
20283;SDS011;10301;50.832;4.080;2023-07-16T03:29:40;10.88;;;5.03;;
20283;SDS011;10301;50.832;4.080;2023-07-16T03:32:05;13.63;;;5.28;;
20283;SDS011;10301;50.832;4.080;2023-07-16T03:34:31;11.10;;;5.50;;
20283;SDS011;10301;50.832;4.080;2023-07-16T03:36:57;11.60;;;5.20;;
20283;SDS011;10301;50.832;4.080;2023-07-16T03:39:23;15.95;;;5.20;;
20283;SDS011;10301;50.832;4.080;2023-07-16T03:41:48;14.82;;;5.00;;
20283;SDS011;10301;50.832;4.080;2023-07-16T03:44:14;9.82;;;4.78;;
20283;SDS011;10301;50.832;4.080;2023-07-16T03:46:39;12.82;;;5.57;;
20283;SDS011;10301;50.832;4.080;2023-07-16T03:49:08;11.18;;;4.90;;
20283;SDS011;10301;50.832;4.080;2023-07-16T03:51:34;10.60;;;5.18;;
20283;SDS011;10301;50.832;4.080;2023-07-16T03:54:00;11.63;;;5.75;;
20283;SDS011;10301;50.832;4.080;2023-07-16T03:56:25;9.48;;;5.03;;
20283;SDS011;10301;50.832;4.080;2023-07-16T03:58:51;10.15;;;5.45;;
20283;SDS011;10301;50.832;4.080;2023-07-16T04:01:17;13.30;;;5.47;;
20283;SDS011;10301;50.832;4.080;2023-07-16T04:03:42;16.15;;;6.18;;
20283;SDS011;10301;50.832;4.080;2023-07-16T04:06:08;10.45;;;5.75;;
20283;SDS011;10301;50.832;4.080;2023-07-16T04:08:35;15.10;;;6.40;;
20283;SDS011;10301;50.832;4.080;2023-07-16T04:11:02;13.18;;;5.55;;
20283;SDS011;10301;50.832;4.080;2023-07-16T04:13:28;12.45;;;5.63;;
20283;SDS011;10301;50.832;4.080;2023-07-16T04:15:54;11.30;;;5.50;;
20283;SDS011;10301;50.832;4.080;2023-07-16T04:18:24;10.77;;;5.30;;
20283;SDS011;10301;50.832;4.080;2023-07-16T04:20:50;17.00;;;5.53;;
20283;SDS011;10301;50.832;4.080;2023-07-16T04:23:16;13.52;;;5.45;;
20283;SDS011;10301;50.832;4.080;2023-07-16T04:25:42;11.52;;;5.80;;
20283;SDS011;10301;50.832;4.080;2023-07-16T04:28:08;12.25;;;5.63;;
20283;SDS011;10301;50.832;4.080;2023-07-16T04:30:34;17.42;;;6.00;;
20283;SDS011;10301;50.832;4.080;2023-07-16T04:33:00;11.98;;;5.45;;
20283;SDS011;10301;50.832;4.080;2023-07-16T04:35:25;12.40;;;6.13;;
20283;SDS011;10301;50.832;4.080;2023-07-16T04:37:51;18.55;;;6.43;;
20283;SDS011;10301;50.832;4.080;2023-07-16T04:40:16;13.27;;;6.22;;
20283;SDS011;10301;50.832;4.080;2023-07-16T04:42:42;13.27;;;5.85;;
20283;SDS011;10301;50.832;4.080;2023-07-16T04:45:08;14.43;;;6.70;;
20283;SDS011;10301;50.832;4.080;2023-07-16T04:47:34;11.77;;;5.57;;
20283;SDS011;10301;50.832;4.080;2023-07-16T04:49:59;12.50;;;5.78;;
20283;SDS011;10301;50.832;4.080;2023-07-16T04:52:25;12.63;;;5.88;;
20283;SDS011;10301;50.832;4.080;2023-07-16T04:54:51;14.98;;;5.90;;
20283;SDS011;10301;50.832;4.080;2023-07-16T04:57:16;14.93;;;5.90;;
20283;SDS011;10301;50.832;4.080;2023-07-16T04:59:42;14.93;;;6.65;;
20283;SDS011;10301;50.832;4.080;2023-07-16T05:02:07;12.35;;;6.75;;
20283;SDS011;10301;50.832;4.080;2023-07-16T05:04:33;13.13;;;6.90;;
20283;SDS011;10301;50.832;4.080;2023-07-16T05:07:03;16.08;;;6.63;;
20283;SDS011;10301;50.832;4.080;2023-07-16T05:09:29;13.90;;;6.63;;
20283;SDS011;10301;50.832;4.080;2023-07-16T05:11:55;14.93;;;6.70;;
20283;SDS011;10301;50.832;4.080;2023-07-16T05:14:21;15.23;;;7.07;;
20283;SDS011;10301;50.832;4.080;2023-07-16T05:16:46;15.63;;;6.38;;
20283;SDS011;10301;50.832;4.080;2023-07-16T05:19:12;16.60;;;7.07;;
20283;SDS011;10301;50.832;4.080;2023-07-16T05:21:38;14.85;;;6.63;;
20283;SDS011;10301;50.832;4.080;2023-07-16T05:24:04;16.17;;;6.97;;
20283;SDS011;10301;50.832;4.080;2023-07-16T05:26:30;15.35;;;6.85;;
20283;SDS011;10301;50.832;4.080;2023-07-16T05:28:56;12.60;;;8.52;;
20283;SDS011;10301;50.832;4.080;2023-07-16T05:31:21;19.73;;;8.07;;
20283;SDS011;10301;50.832;4.080;2023-07-16T05:33:47;16.13;;;6.82;;
20283;SDS011;10301;50.832;4.080;2023-07-16T05:36:13;15.90;;;6.50;;
20283;SDS011;10301;50.832;4.080;2023-07-16T05:38:38;14.70;;;7.00;;
20283;SDS011;10301;50.832;4.080;2023-07-16T05:41:04;13.30;;;7.05;;
20283;SDS011;10301;50.832;4.080;2023-07-16T05:43:30;13.20;;;6.85;;
20283;SDS011;10301;50.832;4.080;2023-07-16T05:45:56;18.63;;;7.80;;
20283;SDS011;10301;50.832;4.080;2023-07-16T05:48:22;16.52;;;7.72;;
20283;SDS011;10301;50.832;4.080;2023-07-16T05:50:48;18.45;;;8.05;;
20283;SDS011;10301;50.832;4.080;2023-07-16T05:53:14;17.33;;;7.80;;
20283;SDS011;10301;50.832;4.080;2023-07-16T05:55:40;18.95;;;7.50;;
20283;SDS011;10301;50.832;4.080;2023-07-16T05:58:05;17.50;;;7.72;;
20283;SDS011;10301;50.832;4.080;2023-07-16T06:00:31;15.00;;;7.22;;
20283;SDS011;10301;50.832;4.080;2023-07-16T06:02:57;18.60;;;7.70;;
20283;SDS011;10301;50.832;4.080;2023-07-16T06:05:23;16.95;;;7.85;;
20283;SDS011;10301;50.832;4.080;2023-07-16T06:07:51;14.65;;;7.97;;
20283;SDS011;10301;50.832;4.080;2023-07-16T06:10:16;17.27;;;7.43;;
20283;SDS011;10301;50.832;4.080;2023-07-16T06:12:42;15.57;;;7.03;;
20283;SDS011;10301;50.832;4.080;2023-07-16T06:15:08;18.27;;;7.38;;
20283;SDS011;10301;50.832;4.080;2023-07-16T06:17:34;14.55;;;7.32;;
20283;SDS011;10301;50.832;4.080;2023-07-16T06:19:59;17.98;;;7.38;;
20283;SDS011;10301;50.832;4.080;2023-07-16T06:22:27;16.30;;;7.68;;
20283;SDS011;10301;50.832;4.080;2023-07-16T06:24:52;14.30;;;7.05;;
20283;SDS011;10301;50.832;4.080;2023-07-16T06:27:18;16.00;;;8.07;;
20283;SDS011;10301;50.832;4.080;2023-07-16T06:29:44;16.35;;;7.82;;
20283;SDS011;10301;50.832;4.080;2023-07-16T06:32:09;17.08;;;7.78;;
20283;SDS011;10301;50.832;4.080;2023-07-16T06:34:35;16.65;;;7.07;;
20283;SDS011;10301;50.832;4.080;2023-07-16T06:37:01;18.08;;;7.65;;
20283;SDS011;10301;50.832;4.080;2023-07-16T06:39:26;15.70;;;7.70;;
20283;SDS011;10301;50.832;4.080;2023-07-16T06:41:52;16.27;;;7.38;;
20283;SDS011;10301;50.832;4.080;2023-07-16T06:44:18;18.10;;;7.50;;
20283;SDS011;10301;50.832;4.080;2023-07-16T06:46:44;17.38;;;7.53;;
20283;SDS011;10301;50.832;4.080;2023-07-16T06:49:09;16.60;;;7.45;;
20283;SDS011;10301;50.832;4.080;2023-07-16T06:51:35;18.40;;;7.88;;
20283;SDS011;10301;50.832;4.080;2023-07-16T06:54:01;14.68;;;7.60;;
20283;SDS011;10301;50.832;4.080;2023-07-16T06:56:26;18.77;;;8.15;;
20283;SDS011;10301;50.832;4.080;2023-07-16T06:58:52;15.05;;;7.30;;
20283;SDS011;10301;50.832;4.080;2023-07-16T07:01:17;13.57;;;7.03;;
20283;SDS011;10301;50.832;4.080;2023-07-16T07:03:43;19.35;;;7.22;;
20283;SDS011;10301;50.832;4.080;2023-07-16T07:06:09;15.10;;;7.55;;
20283;SDS011;10301;50.832;4.080;2023-07-16T07:08:37;20.30;;;8.00;;
20283;SDS011;10301;50.832;4.080;2023-07-16T07:11:04;14.88;;;7.43;;
20283;SDS011;10301;50.832;4.080;2023-07-16T07:13:29;19.23;;;7.70;;
20283;SDS011;10301;50.832;4.080;2023-07-16T07:15:55;20.38;;;7.80;;
20283;SDS011;10301;50.832;4.080;2023-07-16T07:18:21;16.27;;;7.10;;
20283;SDS011;10301;50.832;4.080;2023-07-16T07:20:47;17.67;;;7.85;;
20283;SDS011;10301;50.832;4.080;2023-07-16T07:23:13;19.10;;;6.88;;
20283;SDS011;10301;50.832;4.080;2023-07-16T07:25:39;14.50;;;7.00;;
20283;SDS011;10301;50.832;4.080;2023-07-16T07:28:05;14.80;;;7.25;;
20283;SDS011;10301;50.832;4.080;2023-07-16T07:30:31;15.75;;;6.90;;
20283;SDS011;10301;50.832;4.080;2023-07-16T07:32:57;15.77;;;6.85;;
20283;SDS011;10301;50.832;4.080;2023-07-16T07:35:23;15.05;;;6.82;;
20283;SDS011;10301;50.832;4.080;2023-07-16T07:37:48;14.05;;;7.07;;
20283;SDS011;10301;50.832;4.080;2023-07-16T07:40:14;16.23;;;7.03;;
20283;SDS011;10301;50.832;4.080;2023-07-16T07:42:39;14.45;;;7.07;;
20283;SDS011;10301;50.832;4.080;2023-07-16T07:45:05;17.10;;;6.72;;
20283;SDS011;10301;50.832;4.080;2023-07-16T07:47:31;18.27;;;6.85;;
20283;SDS011;10301;50.832;4.080;2023-07-16T07:49:57;19.90;;;7.25;;
20283;SDS011;10301;50.832;4.080;2023-07-16T07:52:22;18.25;;;7.40;;
20283;SDS011;10301;50.832;4.080;2023-07-16T07:54:48;14.52;;;7.40;;
20283;SDS011;10301;50.832;4.080;2023-07-16T07:57:14;15.45;;;8.73;;
20283;SDS011;10301;50.832;4.080;2023-07-16T07:59:40;18.63;;;14.35;;
20283;SDS011;10301;50.832;4.080;2023-07-16T08:02:05;16.05;;;7.57;;
20283;SDS011;10301;50.832;4.080;2023-07-16T08:04:31;14.30;;;6.90;;
20283;SDS011;10301;50.832;4.080;2023-07-16T08:06:57;16.10;;;6.50;;
20283;SDS011;10301;50.832;4.080;2023-07-16T08:09:23;16.00;;;7.18;;
20283;SDS011;10301;50.832;4.080;2023-07-16T08:11:50;15.70;;;7.13;;
20283;SDS011;10301;50.832;4.080;2023-07-16T08:14:16;14.82;;;6.53;;
20283;SDS011;10301;50.832;4.080;2023-07-16T08:16:41;12.90;;;6.95;;
20283;SDS011;10301;50.832;4.080;2023-07-16T08:19:07;16.13;;;7.50;;
20283;SDS011;10301;50.832;4.080;2023-07-16T08:21:33;15.20;;;11.48;;
20283;SDS011;10301;50.832;4.080;2023-07-16T08:23:59;14.55;;;7.32;;
20283;SDS011;10301;50.832;4.080;2023-07-16T08:26:25;14.55;;;5.93;;
20283;SDS011;10301;50.832;4.080;2023-07-16T08:28:50;10.85;;;5.57;;
20283;SDS011;10301;50.832;4.080;2023-07-16T08:31:16;13.95;;;7.68;;
20283;SDS011;10301;50.832;4.080;2023-07-16T08:33:41;11.95;;;5.78;;
20283;SDS011;10301;50.832;4.080;2023-07-16T08:36:08;14.27;;;6.82;;
20283;SDS011;10301;50.832;4.080;2023-07-16T08:38:34;12.13;;;6.05;;
20283;SDS011;10301;50.832;4.080;2023-07-16T08:41:00;17.25;;;7.60;;
20283;SDS011;10301;50.832;4.080;2023-07-16T08:43:26;16.08;;;6.13;;
20283;SDS011;10301;50.832;4.080;2023-07-16T08:45:54;15.85;;;5.78;;
20283;SDS011;10301;50.832;4.080;2023-07-16T08:48:20;14.70;;;6.55;;
20283;SDS011;10301;50.832;4.080;2023-07-16T08:50:47;13.90;;;7.30;;
20283;SDS011;10301;50.832;4.080;2023-07-16T08:53:16;15.50;;;6.60;;
20283;SDS011;10301;50.832;4.080;2023-07-16T08:55:44;13.57;;;7.18;;
20283;SDS011;10301;50.832;4.080;2023-07-16T08:58:10;13.90;;;5.90;;
20283;SDS011;10301;50.832;4.080;2023-07-16T09:00:39;14.25;;;5.97;;
20283;SDS011;10301;50.832;4.080;2023-07-16T09:03:12;10.13;;;5.85;;
20283;SDS011;10301;50.832;4.080;2023-07-16T09:05:39;11.63;;;7.20;;
20283;SDS011;10301;50.832;4.080;2023-07-16T09:08:05;13.32;;;5.75;;
20283;SDS011;10301;50.832;4.080;2023-07-16T09:10:31;13.30;;;5.93;;
20283;SDS011;10301;50.832;4.080;2023-07-16T09:12:57;13.07;;;5.90;;
20283;SDS011;10301;50.832;4.080;2023-07-16T09:15:25;12.05;;;5.97;;
20283;SDS011;10301;50.832;4.080;2023-07-16T09:17:53;13.25;;;6.05;;
20283;SDS011;10301;50.832;4.080;2023-07-16T09:20:19;10.40;;;5.07;;
20283;SDS011;10301;50.832;4.080;2023-07-16T09:22:46;11.93;;;6.10;;
20283;SDS011;10301;50.832;4.080;2023-07-16T09:25:12;12.13;;;6.32;;
20283;SDS011;10301;50.832;4.080;2023-07-16T09:27:38;13.48;;;6.13;;
20283;SDS011;10301;50.832;4.080;2023-07-16T09:30:04;15.00;;;5.80;;
20283;SDS011;10301;50.832;4.080;2023-07-16T09:32:34;15.02;;;5.68;;
20283;SDS011;10301;50.832;4.080;2023-07-16T09:35:09;14.82;;;6.78;;
20283;SDS011;10301;50.832;4.080;2023-07-16T09:37:36;14.88;;;7.05;;
20283;SDS011;10301;50.832;4.080;2023-07-16T09:40:04;12.20;;;6.10;;
20283;SDS011;10301;50.832;4.080;2023-07-16T09:42:38;11.82;;;5.70;;
20283;SDS011;10301;50.832;4.080;2023-07-16T09:45:08;8.80;;;5.03;;
20283;SDS011;10301;50.832;4.080;2023-07-16T09:47:38;11.02;;;6.07;;
20283;SDS011;10301;50.832;4.080;2023-07-16T09:50:05;12.32;;;5.50;;
20283;SDS011;10301;50.832;4.080;2023-07-16T09:52:31;12.25;;;5.43;;
20283;SDS011;10301;50.832;4.080;2023-07-16T09:55:03;13.07;;;5.93;;
20283;SDS011;10301;50.832;4.080;2023-07-16T09:57:35;10.57;;;5.22;;
20283;SDS011;10301;50.832;4.080;2023-07-16T10:00:05;11.00;;;6.55;;
20283;SDS011;10301;50.832;4.080;2023-07-16T10:02:36;11.57;;;6.15;;
20283;SDS011;10301;50.832;4.080;2023-07-16T10:05:18;12.90;;;5.43;;
20283;SDS011;10301;50.832;4.080;2023-07-16T10:07:53;14.13;;;7.70;;
20283;SDS011;10301;50.832;4.080;2023-07-16T10:10:26;13.50;;;5.55;;
20283;SDS011;10301;50.832;4.080;2023-07-16T10:13:06;11.07;;;5.45;;
20283;SDS011;10301;50.832;4.080;2023-07-16T10:15:33;12.43;;;5.75;;
20283;SDS011;10301;50.832;4.080;2023-07-16T10:17:59;17.45;;;7.90;;
20283;SDS011;10301;50.832;4.080;2023-07-16T10:20:32;10.10;;;5.70;;
20283;SDS011;10301;50.832;4.080;2023-07-16T10:23:10;11.50;;;5.22;;
20283;SDS011;10301;50.832;4.080;2023-07-16T10:25:40;12.50;;;5.03;;
20283;SDS011;10301;50.832;4.080;2023-07-16T10:28:06;12.65;;;5.15;;
20283;SDS011;10301;50.832;4.080;2023-07-16T10:30:32;12.57;;;6.93;;
20283;SDS011;10301;50.832;4.080;2023-07-16T10:33:02;11.07;;;5.30;;
20283;SDS011;10301;50.832;4.080;2023-07-16T10:35:31;13.25;;;5.05;;
20283;SDS011;10301;50.832;4.080;2023-07-16T10:38:01;11.38;;;5.63;;
20283;SDS011;10301;50.832;4.080;2023-07-16T10:40:26;12.85;;;5.70;;
20283;SDS011;10301;50.832;4.080;2023-07-16T10:42:52;14.95;;;5.47;;
20283;SDS011;10301;50.832;4.080;2023-07-16T10:45:18;11.38;;;5.38;;
20283;SDS011;10301;50.832;4.080;2023-07-16T10:47:51;12.15;;;5.45;;
20283;SDS011;10301;50.832;4.080;2023-07-16T10:50:19;14.52;;;5.28;;
20283;SDS011;10301;50.832;4.080;2023-07-16T10:52:49;13.68;;;5.80;;
20283;SDS011;10301;50.832;4.080;2023-07-16T10:55:19;13.40;;;5.35;;
20283;SDS011;10301;50.832;4.080;2023-07-16T10:57:48;10.20;;;7.20;;
20283;SDS011;10301;50.832;4.080;2023-07-16T11:00:15;9.98;;;4.85;;
20283;SDS011;10301;50.832;4.080;2023-07-16T11:02:41;11.07;;;5.57;;
20283;SDS011;10301;50.832;4.080;2023-07-16T11:05:12;9.27;;;5.18;;
20283;SDS011;10301;50.832;4.080;2023-07-16T11:07:42;11.73;;;5.35;;
20283;SDS011;10301;50.832;4.080;2023-07-16T11:10:09;10.02;;;8.32;;
20283;SDS011;10301;50.832;4.080;2023-07-16T11:12:35;9.73;;;6.10;;
20283;SDS011;10301;50.832;4.080;2023-07-16T11:15:01;9.80;;;5.88;;
20283;SDS011;10301;50.832;4.080;2023-07-16T11:17:26;11.60;;;4.80;;
20283;SDS011;10301;50.832;4.080;2023-07-16T11:19:53;10.88;;;6.38;;
20283;SDS011;10301;50.832;4.080;2023-07-16T11:22:19;13.88;;;5.00;;
20283;SDS011;10301;50.832;4.080;2023-07-16T11:24:51;10.02;;;4.15;;
20283;SDS011;10301;50.832;4.080;2023-07-16T11:27:22;8.63;;;4.10;;
20283;SDS011;10301;50.832;4.080;2023-07-16T11:29:52;12.18;;;4.22;;
20283;SDS011;10301;50.832;4.080;2023-07-16T11:32:33;10.63;;;5.97;;
20283;SDS011;10301;50.832;4.080;2023-07-16T11:35:01;11.77;;;4.88;;
20283;SDS011;10301;50.832;4.080;2023-07-16T11:37:28;12.07;;;4.32;;
20283;SDS011;10301;50.832;4.080;2023-07-16T11:39:58;11.05;;;4.65;;
20283;SDS011;10301;50.832;4.080;2023-07-16T11:42:29;11.23;;;4.70;;
20283;SDS011;10301;50.832;4.080;2023-07-16T11:44:56;9.63;;;4.35;;
20283;SDS011;10301;50.832;4.080;2023-07-16T11:47:22;9.50;;;4.22;;
20283;SDS011;10301;50.832;4.080;2023-07-16T11:49:49;9.02;;;4.00;;
20283;SDS011;10301;50.832;4.080;2023-07-16T11:52:18;7.28;;;3.65;;
20283;SDS011;10301;50.832;4.080;2023-07-16T11:54:48;8.90;;;4.00;;
20283;SDS011;10301;50.832;4.080;2023-07-16T11:57:14;9.38;;;3.95;;
20283;SDS011;10301;50.832;4.080;2023-07-16T11:59:40;7.55;;;4.05;;
20283;SDS011;10301;50.832;4.080;2023-07-16T12:02:06;8.30;;;3.55;;
20283;SDS011;10301;50.832;4.080;2023-07-16T12:04:33;8.25;;;3.78;;
20283;SDS011;10301;50.832;4.080;2023-07-16T12:06:58;9.00;;;3.83;;
20283;SDS011;10301;50.832;4.080;2023-07-16T12:09:24;7.45;;;3.40;;
20283;SDS011;10301;50.832;4.080;2023-07-16T12:11:50;7.28;;;3.55;;
20283;SDS011;10301;50.832;4.080;2023-07-16T12:14:15;8.27;;;4.20;;
20283;SDS011;10301;50.832;4.080;2023-07-16T12:16:41;10.52;;;3.42;;
20283;SDS011;10301;50.832;4.080;2023-07-16T12:19:08;7.30;;;3.47;;
20283;SDS011;10301;50.832;4.080;2023-07-16T12:21:34;9.80;;;3.60;;
20283;SDS011;10301;50.832;4.080;2023-07-16T12:24:00;6.85;;;3.38;;
20283;SDS011;10301;50.832;4.080;2023-07-16T12:26:25;7.45;;;3.47;;
20283;SDS011;10301;50.832;4.080;2023-07-16T12:28:52;7.85;;;3.47;;
20283;SDS011;10301;50.832;4.080;2023-07-16T12:31:18;7.68;;;3.50;;
20283;SDS011;10301;50.832;4.080;2023-07-16T12:33:45;8.50;;;3.30;;
20283;SDS011;10301;50.832;4.080;2023-07-16T12:36:11;6.63;;;3.38;;
20283;SDS011;10301;50.832;4.080;2023-07-16T12:38:37;8.65;;;4.00;;
20283;SDS011;10301;50.832;4.080;2023-07-16T12:41:03;9.25;;;3.40;;
20283;SDS011;10301;50.832;4.080;2023-07-16T12:43:29;7.90;;;2.90;;
20283;SDS011;10301;50.832;4.080;2023-07-16T12:45:57;8.88;;;2.83;;
20283;SDS011;10301;50.832;4.080;2023-07-16T12:48:22;8.07;;;3.15;;
20283;SDS011;10301;50.832;4.080;2023-07-16T12:50:48;5.05;;;2.50;;
20283;SDS011;10301;50.832;4.080;2023-07-16T12:53:14;6.20;;;3.38;;
20283;SDS011;10301;50.832;4.080;2023-07-16T12:55:40;6.80;;;2.65;;
20283;SDS011;10301;50.832;4.080;2023-07-16T12:58:06;7.15;;;2.83;;
20283;SDS011;10301;50.832;4.080;2023-07-16T13:00:31;6.53;;;2.70;;
20283;SDS011;10301;50.832;4.080;2023-07-16T13:02:57;5.03;;;2.20;;
20283;SDS011;10301;50.832;4.080;2023-07-16T13:05:22;5.28;;;2.20;;
20283;SDS011;10301;50.832;4.080;2023-07-16T13:07:48;5.50;;;1.98;;
20283;SDS011;10301;50.832;4.080;2023-07-16T13:10:14;4.47;;;1.88;;
20283;SDS011;10301;50.832;4.080;2023-07-16T13:12:39;4.72;;;2.22;;
20283;SDS011;10301;50.832;4.080;2023-07-16T13:15:05;7.97;;;2.67;;
20283;SDS011;10301;50.832;4.080;2023-07-16T13:17:31;7.13;;;3.28;;
20283;SDS011;10301;50.832;4.080;2023-07-16T13:19:57;5.07;;;2.30;;
20283;SDS011;10301;50.832;4.080;2023-07-16T13:22:23;9.32;;;3.90;;
20283;SDS011;10301;50.832;4.080;2023-07-16T13:24:48;6.30;;;2.17;;
20283;SDS011;10301;50.832;4.080;2023-07-16T13:27:20;11.57;;;3.08;;
20283;SDS011;10301;50.832;4.080;2023-07-16T13:29:47;7.10;;;2.90;;
20283;SDS011;10301;50.832;4.080;2023-07-16T13:32:13;6.70;;;2.13;;
20283;SDS011;10301;50.832;4.080;2023-07-16T13:34:39;4.00;;;1.63;;
20283;SDS011;10301;50.832;4.080;2023-07-16T13:37:04;2.45;;;1.10;;
20283;SDS011;10301;50.832;4.080;2023-07-16T13:39:30;8.40;;;1.20;;
20283;SDS011;10301;50.832;4.080;2023-07-16T13:41:55;2.97;;;1.05;;
20283;SDS011;10301;50.832;4.080;2023-07-16T13:44:21;2.25;;;0.80;;
20283;SDS011;10301;50.832;4.080;2023-07-16T13:46:47;5.20;;;1.70;;
20283;SDS011;10301;50.832;4.080;2023-07-16T13:49:12;5.88;;;1.80;;
20283;SDS011;10301;50.832;4.080;2023-07-16T13:51:38;4.80;;;2.22;;
20283;SDS011;10301;50.832;4.080;2023-07-16T13:54:04;4.75;;;2.15;;
20283;SDS011;10301;50.832;4.080;2023-07-16T13:56:30;6.45;;;2.63;;
20283;SDS011;10301;50.832;4.080;2023-07-16T13:58:55;5.88;;;2.78;;
20283;SDS011;10301;50.832;4.080;2023-07-16T14:01:21;6.53;;;2.35;;
20283;SDS011;10301;50.832;4.080;2023-07-16T14:03:48;7.40;;;2.20;;
20283;SDS011;10301;50.832;4.080;2023-07-16T14:06:13;4.85;;;1.70;;
20283;SDS011;10301;50.832;4.080;2023-07-16T14:08:39;7.80;;;2.38;;
20283;SDS011;10301;50.832;4.080;2023-07-16T14:11:05;4.88;;;2.08;;
20283;SDS011;10301;50.832;4.080;2023-07-16T14:13:31;5.95;;;1.88;;
20283;SDS011;10301;50.832;4.080;2023-07-16T14:15:56;5.07;;;2.33;;
20283;SDS011;10301;50.832;4.080;2023-07-16T14:18:22;5.43;;;1.60;;
20283;SDS011;10301;50.832;4.080;2023-07-16T14:20:47;4.97;;;2.00;;
20283;SDS011;10301;50.832;4.080;2023-07-16T14:23:13;4.95;;;1.80;;
20283;SDS011;10301;50.832;4.080;2023-07-16T14:25:39;4.20;;;1.52;;
20283;SDS011;10301;50.832;4.080;2023-07-16T14:28:04;5.22;;;1.85;;
20283;SDS011;10301;50.832;4.080;2023-07-16T14:30:30;5.10;;;2.10;;
20283;SDS011;10301;50.832;4.080;2023-07-16T14:32:56;4.43;;;1.70;;
20283;SDS011;10301;50.832;4.080;2023-07-16T14:35:21;7.00;;;1.90;;
20283;SDS011;10301;50.832;4.080;2023-07-16T14:37:47;5.60;;;1.88;;